Time;durP1;ratioP1;P1;durP2;ratioP2;P2;SDS_P1;SDS_P2;PMS_P1;PMS_P2;Temp;Humidity;BMP_temperature;BMP_pressure;BME280_temperature;BME280_humidity;BME280_pressure;Samples;Min_cycle;Max_cycle;Signal;HPM_P1;HPM_P2
2023/03/20 00:00:51;;;;;;;12.20;11.90;;;11.50;31.70;;;;;;4916540;29;20469;-79
2023/03/20 00:03:19;;;;;;;13.30;12.90;;;11.50;99.90;;;;;;4915921;29;20491;-77
2023/03/20 00:05:48;;;;;;;12.27;11.87;;;11.60;99.90;;;;;;4916091;29;20470;-79
2023/03/20 00:08:16;;;;;;;12.50;12.17;;;11.60;25.60;;;;;;4917358;29;20821;-78
2023/03/20 00:10:46;;;;;;;12.87;12.47;;;11.50;99.90;;;;;;4916101;29;20537;-81
2023/03/20 00:13:22;;;;;;;13.27;12.80;;;11.40;99.90;;;;;;4915971;29;20461;-79
2023/03/20 00:15:50;;;;;;;12.40;12.10;;;11.50;99.90;;;;;;4916312;29;20481;-80
2023/03/20 00:18:21;;;;;;;12.53;12.13;;;11.40;1.00;;;;;;4911613;29;22578;-78
2023/03/20 00:20:52;;;;;;;12.43;11.93;;;11.40;1.00;;;;;;4913590;29;20452;-77
2023/03/20 00:23:20;;;;;;;12.00;11.67;;;11.50;99.90;;;;;;4913200;29;20485;-79
2023/03/20 00:25:50;;;;;;;12.13;11.83;;;11.60;99.90;;;;;;4912012;29;20520;-79
2023/03/20 00:28:32;;;;;;;13.07;12.67;;;11.60;1.00;;;;;;4910178;29;20474;-78
2023/03/20 00:31:00;;;;;;;11.23;11.03;;;11.60;1.00;;;;;;4913368;29;20472;-77
2023/03/20 00:33:30;;;;;;;11.00;10.80;;;11.70;99.90;;;;;;4910918;29;20466;-78
2023/03/20 00:35:58;;;;;;;10.80;10.60;;;11.70;99.90;;;;;;4910142;29;20469;-78
2023/03/20 00:38:26;;;;;;;10.80;10.60;;;11.70;99.90;;;;;;4908089;29;20489;-76
2023/03/20 00:40:56;;;;;;;10.43;10.23;;;11.60;99.90;;;;;;4907469;29;20500;-76
2023/03/20 00:43:24;;;;;;;11.03;10.80;;;11.60;99.90;;;;;;4908764;29;20484;-78
2023/03/20 00:45:52;;;;;;;10.80;10.60;;;11.60;99.90;;;;;;4915970;29;20580;-77
2023/03/20 00:48:20;;;;;;;10.47;10.27;;;11.60;99.90;;;;;;4912455;29;20468;-77
2023/03/20 00:50:49;;;;;;;10.40;10.20;;;11.60;77.70;;;;;;4911487;29;20454;-78
2023/03/20 00:53:17;;;;;;;10.70;10.50;;;11.60;1.00;;;;;;4917135;29;20527;-79
2023/03/20 00:55:45;;;;;;;10.40;10.20;;;11.60;1.00;;;;;;4918871;29;20497;-79
2023/03/20 00:58:15;;;;;;;10.40;10.20;;;11.70;1.00;;;;;;4916360;29;20510;-80
2023/03/20 01:00:45;;;;;;;10.20;10.00;;;11.70;1.00;;;;;;4916770;29;20472;-78
2023/03/20 01:03:16;;;;;;;10.50;10.30;;;11.70;99.90;;;;;;4917713;29;20535;-78
2023/03/20 01:05:45;;;;;;;10.20;10.00;;;11.70;1.00;;;;;;4919057;29;20468;-78
2023/03/20 01:08:15;;;;;;;9.90;9.70;;;11.70;99.90;;;;;;4921655;29;20834;-79
2023/03/20 01:10:45;;;;;;;9.60;9.40;;;11.70;1.00;;;;;;4919093;29;20501;-78
2023/03/20 01:13:20;;;;;;;10.60;10.10;;;11.70;99.90;;;;;;4915343;29;20458;-77
2023/03/20 01:15:49;;;;;;;10.20;10.00;;;11.60;99.90;;;;;;4918870;29;20521;-77
2023/03/20 01:18:22;;;;;;;10.00;9.80;;;11.70;99.90;;;;;;4918697;29;20552;-76
2023/03/20 01:20:51;;;;;;;9.80;9.60;;;11.60;99.90;;;;;;4909352;29;20465;-78
2023/03/20 01:23:21;;;;;;;9.20;9.10;;;11.60;99.90;;;;;;4909774;29;23289;-76
2023/03/20 01:25:50;;;;;;;9.70;9.50;;;11.70;99.90;;;;;;4910814;29;20997;-77
2023/03/20 01:28:21;;;;;;;9.80;9.60;;;11.60;99.90;;;;;;4910625;29;20455;-76
2023/03/20 01:30:49;;;;;;;9.60;9.50;;;11.50;99.90;;;;;;4913878;29;20474;-77
2023/03/20 01:33:20;;;;;;;11.43;10.83;;;11.50;99.90;;;;;;4913581;29;20839;-77
2023/03/20 01:35:50;;;;;;;10.07;9.87;;;11.40;99.90;;;;;;4913448;29;20518;-78
2023/03/20 01:38:21;;;;;;;9.47;9.27;;;11.40;99.90;;;;;;4909941;29;20522;-76
2023/03/20 01:40:56;;;;;;;9.57;9.37;;;11.40;99.90;;;;;;4911558;29;20496;-78
2023/03/20 01:43:27;;;;;;;9.90;9.60;;;11.30;99.90;;;;;;4910854;29;22188;-79
2023/03/20 01:46:01;;;;;;;9.60;9.40;;;11.30;99.90;;;;;;4913374;29;20462;-78
2023/03/20 01:48:55;;;;;;;9.80;9.60;;;11.30;99.90;;;;;;4914973;29;20453;-78
2023/03/20 01:51:25;;;;;;;9.10;9.00;;;11.40;99.90;;;;;;4917394;29;20554;-77
2023/03/20 01:53:57;;;;;;;9.50;9.30;;;11.30;99.90;;;;;;4912745;29;20485;-77
2023/03/20 01:56:28;;;;;;;9.40;9.20;;;11.30;99.90;;;;;;4919053;29;20468;-77
2023/03/20 01:59:03;;;;;;;8.90;8.80;;;11.40;99.90;;;;;;4916317;29;20580;-79
2023/03/20 02:01:31;;;;;;;9.17;8.97;;;11.40;99.90;;;;;;4915629;29;20489;-76
2023/03/20 02:04:00;;;;;;;8.97;8.87;;;11.40;99.90;;;;;;4913867;29;20528;-78
2023/03/20 02:06:28;;;;;;;9.73;9.30;;;11.40;99.90;;;;;;4918112;29;20556;-78
2023/03/20 02:08:56;;;;;;;8.80;8.70;;;11.40;99.90;;;;;;4916877;29;20545;-78
2023/03/20 02:11:25;;;;;;;8.87;8.77;;;11.40;99.90;;;;;;4913827;29;20461;-77
2023/03/20 02:13:55;;;;;;;9.10;9.00;;;11.30;99.90;;;;;;4914230;29;20486;-77
2023/03/20 02:16:26;;;;;;;9.50;9.30;;;11.40;99.90;;;;;;4914269;29;20463;-76
2023/03/20 02:18:56;;;;;;;8.50;8.30;;;11.30;99.90;;;;;;4913006;29;20620;-76
2023/03/20 02:22:12;;;;;;;9.40;9.20;;;11.30;99.90;;;;;;4911598;29;21194;-77
2023/03/20 02:25:04;;;;;;;8.93;8.83;;;11.30;99.90;;;;;;4911659;29;20494;-78
2023/03/20 02:27:39;;;;;;;8.83;8.73;;;11.30;99.90;;;;;;4912825;29;20485;-77
2023/03/20 02:30:43;;;;;;;9.20;9.10;;;11.30;99.90;;;;;;4915235;29;20806;-78
2023/03/20 02:34:04;;;;;;;9.00;8.90;;;11.30;99.90;;;;;;4915172;29;20465;-77
2023/03/20 02:36:57;;;;;;;9.20;9.10;;;11.30;99.90;;;;;;4875590;29;21178;-77
2023/03/20 02:39:40;;;;;;;9.57;9.37;;;11.30;99.90;;;;;;4912051;29;20504;-77
2023/03/20 02:42:19;;;;;;;9.37;9.17;;;11.30;99.90;;;;;;4909248;29;20548;-76
2023/03/20 02:44:57;;;;;;;9.27;9.17;;;11.30;99.90;;;;;;4904511;29;21301;-77
2023/03/20 02:47:30;;;;;;;8.90;8.70;;;11.30;99.90;;;;;;4912683;29;20465;-78
2023/03/20 02:50:07;;;;;;;9.40;9.20;;;11.30;99.90;;;;;;4912062;29;20472;-77
2023/03/20 02:52:44;;;;;;;9.50;9.30;;;11.20;99.90;;;;;;4912089;29;20795;-79
2023/03/20 02:55:21;;;;;;;9.50;9.30;;;11.20;99.90;;;;;;4914632;29;20590;-79
2023/03/20 02:57:57;;;;;;;9.00;8.90;;;11.10;99.90;;;;;;4913995;29;20592;-77
2023/03/20 03:00:32;;;;;;;9.53;9.33;;;11.20;99.90;;;;;;4913075;29;20465;-77
2023/03/20 03:03:07;;;;;;;9.27;9.10;;;11.20;99.90;;;;;;4914161;29;21412;-75
2023/03/20 03:05:40;;;;;;;9.40;9.23;;;11.20;99.90;;;;;;4918522;29;20488;-77
2023/03/20 03:08:12;;;;;;;9.33;9.13;;;11.20;99.90;;;;;;4914455;29;20983;-77
2023/03/20 03:10:45;;;;;;;9.57;9.37;;;11.10;99.90;;;;;;4916204;29;20506;-76
2023/03/20 03:13:17;;;;;;;9.50;9.40;;;11.00;99.90;;;;;;4914831;29;20463;-77
2023/03/20 03:15:48;;;;;;;9.70;9.50;;;11.10;99.90;;;;;;4914265;29;20478;-79
2023/03/20 03:18:20;;;;;;;10.10;9.90;;;11.10;99.90;;;;;;4909745;29;20521;-77
2023/03/20 03:20:52;;;;;;;9.40;9.20;;;11.10;99.90;;;;;;4916494;29;20455;-76
2023/03/20 03:23:26;;;;;;;9.60;9.40;;;11.10;99.90;;;;;;4912128;29;20463;-76
2023/03/20 03:25:59;;;;;;;9.90;9.70;;;11.10;99.90;;;;;;4911202;29;20979;-77
2023/03/20 03:28:36;;;;;;;9.40;9.10;;;11.00;99.90;;;;;;4915079;29;20515;-78
2023/03/20 03:31:06;;;;;;;9.33;9.20;;;11.00;99.90;;;;;;4910468;29;20468;-77
2023/03/20 03:33:36;;;;;;;9.03;8.93;;;11.10;99.90;;;;;;4914557;29;20486;-76
2023/03/20 03:36:11;;;;;;;9.43;9.23;;;11.10;99.90;;;;;;4914048;29;21042;-76
2023/03/20 03:38:44;;;;;;;9.40;9.20;;;11.10;99.90;;;;;;4914808;29;22433;-77
2023/03/20 03:41:22;;;;;;;9.00;8.90;;;11.10;99.90;;;;;;4910551;29;21052;-77
2023/03/20 03:43:57;;;;;;;9.10;8.90;;;11.10;99.90;;;;;;4913637;29;20517;-74
2023/03/20 03:46:32;;;;;;;9.30;9.10;;;11.10;99.90;;;;;;4914685;29;20535;-78
2023/03/20 03:49:02;;;;;;;9.00;8.90;;;11.20;99.90;;;;;;4913475;29;20818;-77
2023/03/20 03:51:34;;;;;;;9.37;9.17;;;11.10;99.90;;;;;;4913868;29;20870;-78
2023/03/20 03:54:08;;;;;;;8.83;8.70;;;11.20;99.90;;;;;;4917418;29;20902;-77
2023/03/20 03:56:41;;;;;;;9.63;9.43;;;11.20;99.90;;;;;;4920691;29;20454;-78
2023/03/20 03:59:15;;;;;;;9.40;9.20;;;11.20;99.90;;;;;;4912300;29;21030;-78
2023/03/20 04:01:43;;;;;;;8.73;8.63;;;11.10;99.90;;;;;;4913902;29;20544;-76
2023/03/20 04:04:15;;;;;;;8.50;8.40;;;11.20;99.90;;;;;;4912414;29;20485;-76
2023/03/20 04:06:43;;;;;;;8.67;8.57;;;11.10;99.90;;;;;;4918164;29;20522;-78
2023/03/20 04:09:12;;;;;;;8.60;8.50;;;11.10;99.90;;;;;;4913411;29;20463;-77
2023/03/20 04:11:41;;;;;;;8.67;8.53;;;11.10;99.90;;;;;;4915098;29;20586;-76
2023/03/20 04:14:10;;;;;;;8.60;8.50;;;11.10;99.90;;;;;;4914683;29;20509;-76
2023/03/20 04:16:38;;;;;;;8.60;8.50;;;11.10;99.90;;;;;;4912693;29;20546;-75
2023/03/20 04:19:06;;;;;;;8.90;8.70;;;11.10;99.90;;;;;;4912089;29;21109;-77
2023/03/20 04:21:34;;;;;;;8.90;8.70;;;11.20;99.90;;;;;;4915718;29;22404;-79
2023/03/20 04:24:03;;;;;;;8.70;8.50;;;11.20;99.90;;;;;;4918993;29;20488;-77
2023/03/20 04:26:31;;;;;;;8.40;8.30;;;11.10;99.90;;;;;;4917303;29;20458;-78
2023/03/20 04:29:00;;;;;;;9.47;9.27;;;11.10;99.90;;;;;;4919155;29;20471;-77
2023/03/20 04:31:28;;;;;;;8.77;8.57;;;11.00;99.90;;;;;;4918214;29;20469;-78
2023/03/20 04:33:57;;;;;;;8.80;8.60;;;11.00;99.90;;;;;;4912212;29;20485;-76
2023/03/20 04:36:25;;;;;;;8.60;8.40;;;11.00;99.90;;;;;;4914576;29;20595;-77
2023/03/20 04:38:53;;;;;;;8.80;8.60;;;10.90;99.90;;;;;;4919506;29;20568;-78
2023/03/20 04:41:24;;;;;;;8.80;8.60;;;10.90;99.90;;;;;;4917879;29;21030;-77
2023/03/20 04:43:52;;;;;;;8.70;8.60;;;10.90;99.90;;;;;;4918137;29;20489;-78
2023/03/20 04:46:22;;;;;;;8.60;8.40;;;10.80;99.90;;;;;;4918603;29;20457;-78
2023/03/20 04:48:50;;;;;;;8.80;8.60;;;10.90;99.90;;;;;;4913189;29;20450;-77
2023/03/20 04:51:18;;;;;;;9.00;8.80;;;10.80;99.90;;;;;;4913511;29;20946;-77
2023/03/20 04:53:46;;;;;;;8.70;8.50;;;10.70;1.00;;;;;;4914116;29;20478;-77
2023/03/20 04:56:14;;;;;;;8.83;8.73;;;10.60;1.00;;;;;;4918613;29;21272;-78
2023/03/20 04:58:43;;;;;;;9.47;9.27;;;10.70;1.00;;;;;;4916309;29;20477;-77
2023/03/20 05:01:11;;;;;;;9.43;9.23;;;10.90;1.00;;;;;;4916902;29;21077;-79
2023/03/20 05:03:40;;;;;;;9.30;9.10;;;10.90;99.90;;;;;;4917073;29;20494;-78
2023/03/20 05:06:09;;;;;;;10.07;9.87;;;10.80;99.90;;;;;;4920603;29;20460;-77
2023/03/20 05:08:37;;;;;;;9.43;9.23;;;10.80;1.00;;;;;;4918128;29;20468;-80
2023/03/20 05:11:07;;;;;;;9.60;9.40;;;10.80;1.00;;;;;;4920048;29;20474;-77
2023/03/20 05:13:35;;;;;;;9.90;9.60;;;10.80;1.00;;;;;;4919755;29;20481;-78
2023/03/20 05:16:03;;;;;;;9.70;9.40;;;10.80;1.00;;;;;;4920499;29;20474;-81
2023/03/20 05:18:31;;;;;;;9.60;9.40;;;10.90;99.90;;;;;;4925631;29;20544;-80
2023/03/20 05:21:01;;;;;;;9.43;9.23;;;10.90;99.90;;;;;;4920937;29;20489;-83
2023/03/20 05:23:29;;;;;;;9.97;9.57;;;10.90;99.90;;;;;;4919537;29;20615;-77
2023/03/20 05:25:57;;;;;;;9.80;9.60;;;10.80;1.00;;;;;;4915410;29;20459;-79
2023/03/20 05:28:27;;;;;;;10.43;10.10;;;10.80;1.00;;;;;;4917102;29;20466;-78
2023/03/20 05:30:55;;;;;;;9.80;9.60;;;10.80;99.90;;;;;;4913782;29;20478;-80
2023/03/20 05:33:24;;;;;;;10.30;10.00;;;10.90;1.00;;;;;;4911539;29;20483;-78
2023/03/20 05:35:52;;;;;;;9.80;9.60;;;10.90;99.90;;;;;;4915180;29;20472;-77
2023/03/20 05:38:22;;;;;;;11.00;10.70;;;10.90;99.90;;;;;;4917817;29;20623;-78
2023/03/20 05:40:50;;;;;;;11.20;10.90;;;11.00;99.90;;;;;;4917870;29;21021;-80
2023/03/20 05:43:18;;;;;;;11.10;10.80;;;11.00;99.90;;;;;;4919435;29;20444;-79
2023/03/20 05:45:46;;;;;;;11.30;11.00;;;11.00;99.90;;;;;;4921087;29;20458;-79
2023/03/20 05:48:14;;;;;;;12.53;12.13;;;11.00;99.90;;;;;;4916780;29;20462;-80
2023/03/20 05:50:42;;;;;;;11.23;10.93;;;11.10;99.90;;;;;;4918579;29;20462;-79
2023/03/20 05:53:11;;;;;;;10.90;10.60;;;11.10;99.90;;;;;;4915121;29;20477;-80
2023/03/20 05:55:43;;;;;;;10.83;10.63;;;11.10;99.90;;;;;;4921199;29;20542;-80
2023/03/20 05:58:11;;;;;;;11.20;11.00;;;11.10;99.90;;;;;;4914735;29;20995;-79
2023/03/20 06:00:40;;;;;;;10.73;10.50;;;11.10;99.90;;;;;;4913825;29;20502;-80
2023/03/20 06:03:08;;;;;;;12.63;11.73;;;11.20;99.90;;;;;;4918677;29;20457;-79
2023/03/20 06:05:36;;;;;;;11.00;10.80;;;11.20;99.90;;;;;;4919764;29;20467;-77
2023/03/20 06:08:05;;;;;;;10.97;10.77;;;11.20;99.90;;;;;;4917863;29;20878;-78
2023/03/20 06:10:34;;;;;;;11.77;11.47;;;11.20;99.90;;;;;;4919594;29;20463;-81
2023/03/20 06:13:03;;;;;;;11.43;11.20;;;11.20;99.90;;;;;;4915773;29;20463;-79
2023/03/20 06:15:31;;;;;;;11.53;11.33;;;11.10;99.90;;;;;;4913946;29;20501;-78
2023/03/20 06:18:00;;;;;;;11.00;10.80;;;11.10;99.90;;;;;;4913612;29;20856;-79
2023/03/20 06:20:28;;;;;;;12.50;12.10;;;11.10;99.90;;;;;;4908381;29;20476;-78
2023/03/20 06:22:56;;;;;;;13.70;13.20;;;11.10;99.90;;;;;;4915452;29;20456;-78
2023/03/20 06:25:24;;;;;;;12.63;12.13;;;11.20;99.90;;;;;;4919342;29;20486;-78
2023/03/20 06:27:52;;;;;;;11.53;11.30;;;11.20;99.90;;;;;;4903702;29;20464;-79
2023/03/20 06:30:22;;;;;;;11.83;11.53;;;11.20;99.90;;;;;;4916783;29;20456;-78
2023/03/20 06:32:50;;;;;;;12.20;11.90;;;11.30;99.90;;;;;;4918542;29;20556;-78
2023/03/20 06:35:19;;;;;;;12.20;11.90;;;11.30;99.90;;;;;;4914033;29;20513;-79
2023/03/20 06:37:47;;;;;;;11.73;11.50;;;11.30;99.90;;;;;;4918443;29;20469;-80
2023/03/20 06:40:15;;;;;;;11.30;10.80;;;11.40;99.90;;;;;;4916262;29;20496;-80
2023/03/20 06:42:43;;;;;;;10.97;10.77;;;11.40;99.90;;;;;;4919677;29;20463;-79
2023/03/20 06:45:12;;;;;;;12.10;11.80;;;11.50;99.90;;;;;;4917965;29;20491;-78
2023/03/20 06:47:45;;;;;;;11.20;11.00;;;11.60;99.90;;;;;;4915412;29;20453;-80
2023/03/20 06:50:14;;;;;;;12.17;11.87;;;11.70;99.90;;;;;;4918995;29;20549;-79
2023/03/20 06:52:43;;;;;;;11.80;11.50;;;11.70;99.90;;;;;;4917815;29;20572;-80
2023/03/20 06:55:11;;;;;;;12.03;11.63;;;11.90;59.40;;;;;;4920216;29;20474;-79
2023/03/20 06:57:40;;;;;;;11.53;11.33;;;12.10;84.20;;;;;;4920318;29;20535;-78
2023/03/20 07:00:10;;;;;;;12.20;11.90;;;12.20;1.00;;;;;;4920049;29;20494;-80
2023/03/20 07:02:38;;;;;;;12.40;11.90;;;12.20;1.00;;;;;;4916110;29;20921;-80
2023/03/20 07:05:09;;;;;;;12.10;11.70;;;12.10;1.00;;;;;;4900205;29;20485;-78
2023/03/20 07:07:37;;;;;;;11.77;11.50;;;12.20;1.00;;;;;;4924165;29;20849;-80
2023/03/20 07:10:06;;;;;;;11.37;11.17;;;12.30;1.00;;;;;;4920074;29;20459;-80
2023/03/20 07:12:34;;;;;;;11.90;11.60;;;12.40;1.00;;;;;;4921232;29;21219;-78
2023/03/20 07:15:02;;;;;;;11.70;11.40;;;12.60;1.00;;;;;;4920124;29;20571;-81
2023/03/20 07:17:30;;;;;;;12.10;11.80;;;12.70;1.00;;;;;;4918813;29;20463;-79
2023/03/20 07:19:59;;;;;;;12.23;11.93;;;12.70;1.00;;;;;;4919204;29;20477;-78
2023/03/20 07:22:30;;;;;;;11.50;11.20;;;12.80;1.00;;;;;;4911089;29;20472;-79
2023/03/20 07:24:58;;;;;;;11.57;11.27;;;12.90;1.00;;;;;;4917466;29;20491;-80
2023/03/20 07:27:26;;;;;;;11.73;11.40;;;12.90;1.00;;;;;;4923248;29;20503;-79
2023/03/20 07:29:55;;;;;;;12.00;11.80;;;12.80;1.00;;;;;;4922061;29;20467;-79
2023/03/20 07:32:23;;;;;;;11.50;11.20;;;12.80;1.00;;;;;;4920287;29;20480;-77
2023/03/20 07:34:51;;;;;;;11.40;11.10;;;12.60;1.00;;;;;;4916343;29;21007;-78
2023/03/20 07:37:19;;;;;;;11.67;11.40;;;12.60;1.00;;;;;;4919749;29;20465;-79
2023/03/20 07:39:49;;;;;;;11.23;11.03;;;12.70;1.00;;;;;;4910976;29;21092;-80
2023/03/20 07:42:18;;;;;;;10.90;10.70;;;12.70;1.00;;;;;;4912434;29;20577;-77
2023/03/20 07:44:46;;;;;;;10.83;10.63;;;12.80;1.00;;;;;;4916778;29;21505;-79
2023/03/20 07:47:14;;;;;;;12.30;11.90;;;12.80;1.00;;;;;;4918722;29;20469;-80
2023/03/20 07:49:43;;;;;;;12.47;12.17;;;12.90;1.00;;;;;;4916906;29;20464;-80
2023/03/20 07:52:11;;;;;;;12.40;12.10;;;13.20;1.00;;;;;;4920156;29;20520;-81
2023/03/20 07:54:39;;;;;;;12.23;11.97;;;13.50;1.00;;;;;;4920188;29;20885;-76
2023/03/20 07:57:09;;;;;;;12.40;12.10;;;13.80;1.00;;;;;;4917396;29;20465;-78
2023/03/20 07:59:37;;;;;;;11.77;11.47;;;13.90;1.00;;;;;;4921833;29;20456;-79
2023/03/20 08:02:05;;;;;;;11.87;11.57;;;13.80;99.90;;;;;;4919059;29;20480;-80
2023/03/20 08:04:34;;;;;;;11.60;11.30;;;13.50;1.00;;;;;;4922214;29;20487;-79
2023/03/20 08:07:02;;;;;;;12.17;11.87;;;13.40;99.90;;;;;;4921287;29;20472;-78
2023/03/20 08:09:30;;;;;;;12.27;11.97;;;13.30;99.90;;;;;;4921470;29;21137;-80
2023/03/20 08:11:59;;;;;;;11.40;11.10;;;13.30;99.90;;;;;;4924202;29;20463;-78
2023/03/20 08:14:28;;;;;;;12.33;11.93;;;13.20;1.00;;;;;;4925501;29;21474;-79
2023/03/20 08:16:56;;;;;;;11.90;11.60;;;13.00;1.00;;;;;;4923656;29;20815;-77
2023/03/20 08:19:41;;;;;;;11.87;11.57;;;13.10;1.00;;;;;;4918223;29;20986;-79
2023/03/20 08:22:10;;;;;;;11.10;10.70;;;13.10;99.90;;;;;;4920506;29;20481;-79
2023/03/20 08:24:38;;;;;;;10.80;10.60;;;13.00;99.90;;;;;;4922449;29;20492;-78
2023/03/20 08:27:06;;;;;;;11.60;11.30;;;13.00;99.90;;;;;;4922274;29;20460;-77
2023/03/20 08:29:36;;;;;;;10.43;10.23;;;13.00;99.90;;;;;;4918595;29;20984;-80
2023/03/20 08:32:05;;;;;;;10.83;10.63;;;12.80;99.90;;;;;;4921618;29;20557;-78
2023/03/20 08:34:33;;;;;;;11.27;11.00;;;12.80;99.90;;;;;;4917009;29;20478;-81
2023/03/20 08:37:04;;;;;;;10.97;10.60;;;12.80;99.90;;;;;;4915870;29;21428;-82
2023/03/20 08:39:33;;;;;;;10.37;10.17;;;12.90;99.90;;;;;;4916359;29;20470;-80
2023/03/20 08:42:01;;;;;;;10.90;10.60;;;12.70;99.90;;;;;;4919998;29;21015;-79
2023/03/20 08:44:29;;;;;;;10.80;10.53;;;12.70;99.90;;;;;;4918859;29;20491;-81
2023/03/20 08:46:59;;;;;;;10.83;10.63;;;12.70;99.90;;;;;;4920272;29;20472;-80
2023/03/20 08:49:28;;;;;;;10.73;10.50;;;12.80;99.90;;;;;;4914134;29;20471;-78
2023/03/20 08:51:56;;;;;;;10.00;9.80;;;12.90;99.90;;;;;;4918107;29;20460;-81
2023/03/20 08:54:25;;;;;;;10.63;10.40;;;12.80;99.90;;;;;;4919679;29;20604;-81
2023/03/20 08:56:53;;;;;;;10.50;10.30;;;12.90;99.90;;;;;;4924092;29;20462;-77
2023/03/20 08:59:22;;;;;;;10.97;10.57;;;13.00;99.90;;;;;;4916548;29;20485;-80
2023/03/20 09:01:50;;;;;;;10.50;10.30;;;13.10;99.90;;;;;;4920339;29;20554;-79
2023/03/20 09:04:20;;;;;;;11.00;10.70;;;13.30;99.90;;;;;;4924819;29;20542;-80
2023/03/20 09:06:50;;;;;;;10.40;10.10;;;13.50;99.90;;;;;;4927202;29;20465;-80
2023/03/20 09:09:20;;;;;;;10.63;10.33;;;13.60;99.90;;;;;;4925100;29;20613;-79
2023/03/20 09:11:48;;;;;;;10.87;10.57;;;13.60;99.90;;;;;;4923995;29;20461;-78
2023/03/20 09:14:17;;;;;;;11.40;11.00;;;13.50;99.90;;;;;;4923744;29;20483;-79
2023/03/20 09:16:46;;;;;;;10.50;10.20;;;13.50;99.90;;;;;;4922223;29;20456;-79
2023/03/20 09:19:14;;;;;;;10.63;10.33;;;13.40;99.90;;;;;;4917434;29;20474;-79
2023/03/20 09:21:44;;;;;;;10.50;10.27;;;13.40;99.90;;;;;;4917563;29;20489;-81
2023/03/20 09:24:12;;;;;;;10.30;10.00;;;13.40;99.90;;;;;;4918887;29;20503;-79
2023/03/20 09:26:40;;;;;;;11.10;10.70;;;13.30;99.90;;;;;;4924603;29;20463;-79
2023/03/20 09:29:09;;;;;;;10.20;9.90;;;13.40;99.90;;;;;;4920148;29;20465;-81
2023/03/20 09:31:37;;;;;;;11.03;10.63;;;13.30;99.90;;;;;;4920089;29;20462;-78
2023/03/20 09:34:06;;;;;;;11.50;10.87;;;13.40;99.90;;;;;;4915916;29;20519;-80
2023/03/20 09:36:35;;;;;;;11.03;10.63;;;13.30;99.90;;;;;;4919658;29;20981;-79
2023/03/20 09:39:04;;;;;;;11.73;11.33;;;13.40;99.90;;;;;;4915061;29;20471;-79
2023/03/20 09:41:35;;;;;;;10.70;10.33;;;13.40;99.90;;;;;;4916331;29;20847;-78
2023/03/20 09:44:36;;;;;;;10.80;10.50;;;13.40;99.90;;;;;;4921363;29;20478;-80
2023/03/20 09:47:11;;;;;;;10.63;10.33;;;13.40;99.90;;;;;;4920339;29;20468;-79
2023/03/20 09:49:57;;;;;;;9.57;9.37;;;13.30;99.90;;;;;;4925327;29;20447;-78
2023/03/20 09:52:30;;;;;;;10.00;9.70;;;13.30;99.90;;;;;;4926584;29;20601;-79
2023/03/20 09:55:03;;;;;;;10.20;10.00;;;13.30;99.90;;;;;;4924836;29;21092;-79
2023/03/20 09:57:37;;;;;;;10.20;10.00;;;13.40;99.90;;;;;;4924287;29;20642;-77
2023/03/20 10:00:11;;;;;;;10.20;9.90;;;13.40;99.90;;;;;;4922920;29;20450;-80
2023/03/20 10:02:47;;;;;;;10.00;9.70;;;13.30;99.90;;;;;;4925707;29;20482;-79
2023/03/20 10:05:21;;;;;;;10.50;10.20;;;13.30;99.90;;;;;;4926653;29;20504;-78
2023/03/20 10:07:50;;;;;;;9.70;9.50;;;13.60;99.90;;;;;;4923400;29;22220;-81
2023/03/20 10:10:23;;;;;;;10.37;10.07;;;13.90;99.90;;;;;;4921877;29;20470;-78
2023/03/20 10:13:06;;;;;;;11.13;10.83;;;14.10;99.90;;;;;;4921094;29;20468;-81
2023/03/20 10:15:45;;;;;;;11.30;10.70;;;14.30;99.90;;;;;;4921325;29;20458;-79
2023/03/20 10:18:20;;;;;;;10.33;10.03;;;14.50;99.90;;;;;;4918783;29;21272;-77
2023/03/20 10:20:56;;;;;;;9.50;9.20;;;14.40;99.90;;;;;;4918007;29;20522;-82
2023/03/20 10:23:33;;;;;;;9.40;9.20;;;14.20;99.90;;;;;;4921590;29;20474;-81
2023/03/20 10:26:10;;;;;;;9.70;9.50;;;14.10;99.90;;;;;;4920244;29;20974;-80
2023/03/20 10:28:44;;;;;;;9.13;8.93;;;14.10;99.90;;;;;;4921651;29;20458;-78
2023/03/20 10:31:31;;;;;;;9.20;8.90;;;14.00;99.90;;;;;;4915368;29;20516;-79
2023/03/20 10:34:14;;;;;;;10.23;9.73;;;13.90;99.90;;;;;;4917240;29;20570;-79
2023/03/20 10:36:54;;;;;;;9.77;9.47;;;13.70;99.90;;;;;;4915122;29;20539;-79
2023/03/20 10:39:36;;;;;;;10.07;9.57;;;13.70;99.90;;;;;;4918521;29;21502;-79
2023/03/20 10:42:14;;;;;;;8.37;8.10;;;13.50;99.90;;;;;;4919623;29;20568;-80
2023/03/20 10:44:49;;;;;;;8.23;8.03;;;13.50;99.90;;;;;;4917104;29;20483;-80
2023/03/20 10:47:21;;;;;;;8.40;8.20;;;13.50;99.90;;;;;;4918924;29;20458;-77
2023/03/20 10:49:54;;;;;;;8.30;8.10;;;13.50;99.90;;;;;;4919150;29;20469;-79
2023/03/20 10:52:26;;;;;;;8.50;8.27;;;13.50;99.90;;;;;;4916981;29;20460;-80
2023/03/20 10:54:57;;;;;;;8.27;8.07;;;13.50;99.90;;;;;;4921478;29;20503;-79
2023/03/20 10:57:31;;;;;;;7.73;7.53;;;13.40;99.90;;;;;;4919905;29;20533;-78
2023/03/20 11:00:00;;;;;;;8.37;8.17;;;13.30;99.90;;;;;;4923564;29;20508;-80
2023/03/20 11:02:30;;;;;;;7.87;7.67;;;13.40;99.90;;;;;;4925155;29;20580;-79
2023/03/20 11:05:00;;;;;;;7.70;7.50;;;13.40;99.90;;;;;;4921579;29;21209;-78
2023/03/20 11:07:33;;;;;;;8.40;8.20;;;13.40;99.90;;;;;;4923194;29;21009;-78
2023/03/20 11:10:11;;;;;;;9.50;9.10;;;13.40;99.90;;;;;;4922133;29;20460;-79
2023/03/20 11:12:42;;;;;;;8.80;8.60;;;13.40;99.90;;;;;;4925546;29;20452;-80
2023/03/20 11:15:23;;;;;;;8.20;8.00;;;13.40;99.90;;;;;;4922276;29;20558;-80
2023/03/20 11:17:54;;;;;;;8.63;8.33;;;13.40;99.90;;;;;;4924150;29;20467;-79
2023/03/20 11:20:24;;;;;;;9.53;9.23;;;13.50;99.90;;;;;;4920179;29;21031;-79
2023/03/20 11:22:59;;;;;;;9.00;8.70;;;13.40;99.90;;;;;;4920215;29;20480;-78
2023/03/20 11:25:33;;;;;;;8.70;8.40;;;13.40;99.90;;;;;;4916695;29;21182;-80
2023/03/20 11:28:30;;;;;;;8.20;8.00;;;13.50;99.90;;;;;;4913868;29;20467;-79
2023/03/20 11:31:00;;;;;;;8.97;8.67;;;13.50;99.90;;;;;;4913361;29;20994;-80
2023/03/20 11:33:36;;;;;;;9.03;8.80;;;13.70;99.90;;;;;;4918178;29;20477;-80
2023/03/20 11:36:12;;;;;;;8.70;8.50;;;14.00;99.90;;;;;;4918296;29;20488;-78
2023/03/20 11:38:45;;;;;;;8.80;8.60;;;14.40;99.90;;;;;;4917430;29;20463;-80
2023/03/20 11:41:20;;;;;;;8.43;8.23;;;14.60;99.90;;;;;;4919256;29;20472;-78
2023/03/20 11:43:49;;;;;;;8.50;8.30;;;14.60;99.90;;;;;;4916424;29;20487;-79
2023/03/20 11:46:21;;;;;;;8.60;8.20;;;14.70;99.90;;;;;;4918404;29;20461;-78
2023/03/20 11:49:04;;;;;;;8.50;8.30;;;14.90;99.90;;;;;;4923278;29;20458;-79
2023/03/20 11:51:34;;;;;;;8.57;8.37;;;14.90;99.90;;;;;;4923607;29;20461;-81
2023/03/20 11:54:05;;;;;;;8.70;8.50;;;15.00;99.90;;;;;;4922714;29;20477;-79
2023/03/20 11:56:34;;;;;;;7.77;7.57;;;15.00;99.90;;;;;;4920845;29;20475;-80
2023/03/20 11:59:13;;;;;;;8.40;8.10;;;14.90;99.90;;;;;;4919066;29;20887;-80
2023/03/20 12:01:45;;;;;;;8.50;8.30;;;14.90;99.90;;;;;;4920484;29;20485;-78
2023/03/20 12:04:17;;;;;;;8.07;7.87;;;14.90;99.90;;;;;;4923109;29;20542;-79
2023/03/20 12:06:50;;;;;;;8.97;8.40;;;14.90;99.90;;;;;;4920557;29;20468;-78
2023/03/20 12:09:35;;;;;;;9.30;9.00;;;14.80;99.90;;;;;;4922334;29;20450;-79
2023/03/20 12:12:18;;;;;;;8.83;8.63;;;14.80;99.90;;;;;;4915221;29;20465;-80
2023/03/20 12:14:55;;;;;;;8.53;8.33;;;14.80;99.90;;;;;;4914733;29;24609;-79
2023/03/20 12:17:33;;;;;;;8.37;8.07;;;14.70;99.90;;;;;;4916978;29;20449;-79
2023/03/20 12:20:07;;;;;;;8.80;8.50;;;14.60;99.90;;;;;;4915501;29;20568;-80
2023/03/20 12:22:40;;;;;;;8.97;8.60;;;14.60;99.90;;;;;;4914466;29;20458;-77
2023/03/20 12:25:20;;;;;;;9.17;8.77;;;14.50;99.90;;;;;;4917610;29;20478;-79
2023/03/20 12:27:54;;;;;;;8.63;8.43;;;14.50;99.90;;;;;;4916506;29;20842;-80
2023/03/20 12:30:32;;;;;;;8.87;8.57;;;14.40;99.90;;;;;;4917638;29;20460;-80
2023/03/20 12:33:06;;;;;;;8.13;7.70;;;14.30;99.90;;;;;;4916936;29;20471;-80
2023/03/20 12:35:38;;;;;;;8.60;8.40;;;14.40;99.90;;;;;;4913253;29;20817;-79
2023/03/20 12:38:21;;;;;;;8.47;8.27;;;14.40;99.90;;;;;;4916204;29;21287;-76
2023/03/20 12:40:53;;;;;;;8.57;8.27;;;14.40;99.90;;;;;;4920134;29;20475;-80
2023/03/20 12:43:26;;;;;;;9.00;8.60;;;14.40;99.90;;;;;;4921373;29;20477;-80
2023/03/20 12:46:02;;;;;;;8.70;8.40;;;14.50;99.90;;;;;;4920206;29;20468;-79
2023/03/20 12:48:40;;;;;;;8.87;8.63;;;14.60;99.90;;;;;;4903298;29;20483;-76
2023/03/20 12:51:17;;;;;;;8.67;8.47;;;14.50;99.90;;;;;;4923283;29;20506;-79
2023/03/20 12:53:55;;;;;;;8.67;8.47;;;14.60;99.90;;;;;;4921581;29;20570;-77
2023/03/20 12:56:32;;;;;;;8.50;8.30;;;14.70;99.90;;;;;;4926366;29;20519;-79
2023/03/20 12:59:07;;;;;;;9.30;9.00;;;14.80;99.90;;;;;;4924366;29;20541;-80
2023/03/20 13:01:44;;;;;;;8.70;8.50;;;14.90;99.90;;;;;;4921815;29;20539;-79